createdAt,value
2018-12-24T00:00:42.662Z,0.00
2018-12-24T00:01:42.654Z,0.00
2018-12-24T00:02:42.642Z,0.00
2018-12-24T00:03:42.639Z,0.00
2018-12-24T00:04:42.619Z,0.00
2018-12-24T00:05:42.610Z,0.00
2018-12-24T00:06:42.598Z,0.00
2018-12-24T00:07:42.586Z,0.00
2018-12-24T00:08:42.578Z,0.00
2018-12-24T00:09:42.564Z,0.00
2018-12-24T00:10:42.555Z,0.00
2018-12-24T00:11:42.540Z,0.00
2018-12-24T00:12:42.532Z,0.00
2018-12-24T00:13:42.518Z,0.00
2018-12-24T00:14:42.510Z,0.00
2018-12-24T00:15:42.500Z,0.00
2018-12-24T00:16:42.485Z,0.00
2018-12-24T00:17:42.475Z,0.00
2018-12-24T00:18:42.464Z,0.00
2018-12-24T00:19:42.458Z,0.00
2018-12-24T00:20:42.441Z,0.00
2018-12-24T00:21:42.431Z,0.00
2018-12-24T00:22:42.423Z,0.00
2018-12-24T00:23:42.407Z,0.00
2018-12-24T00:24:42.397Z,0.00
2018-12-24T00:25:42.386Z,0.00
2018-12-24T00:26:42.373Z,0.00
2018-12-24T00:27:42.362Z,0.00
2018-12-24T00:28:42.354Z,0.00
2018-12-24T00:29:42.340Z,0.00
2018-12-24T00:30:42.329Z,0.00
2018-12-24T00:31:42.322Z,0.00
2018-12-24T00:32:42.314Z,0.00
2018-12-24T00:33:42.298Z,0.00
2018-12-24T00:34:42.294Z,0.00
2018-12-24T00:35:42.273Z,0.00
2018-12-24T00:36:42.271Z,0.00
2018-12-24T00:37:42.260Z,0.00
2018-12-24T00:38:42.240Z,0.00
2018-12-24T00:39:42.228Z,0.00
2018-12-24T00:40:42.216Z,0.00
2018-12-24T00:41:42.209Z,0.00
2018-12-24T00:42:42.199Z,0.00
2018-12-24T00:43:42.186Z,0.00
2018-12-24T00:44:42.173Z,0.00
2018-12-24T00:45:42.166Z,0.00
2018-12-24T00:46:42.153Z,0.00
2018-12-24T00:47:42.141Z,0.00
2018-12-24T00:48:42.134Z,0.00
2018-12-24T00:49:42.119Z,0.00
2018-12-24T00:50:42.105Z,0.00
2018-12-24T00:51:42.101Z,0.00
2018-12-24T00:52:42.086Z,0.00
2018-12-24T00:53:42.077Z,0.00
2018-12-24T00:54:42.063Z,0.00
2018-12-24T00:55:42.053Z,0.00
2018-12-24T00:57:01.738Z,0.00
2018-12-24T00:58:24.072Z,0.00
2018-12-24T00:59:24.058Z,0.00
2018-12-24T01:00:24.050Z,0.00
2018-12-24T01:01:24.037Z,0.00
2018-12-24T01:02:24.027Z,0.00
2018-12-24T01:03:24.021Z,0.00
2018-12-24T01:04:24.006Z,0.00
2018-12-24T01:05:23.997Z,0.00
2018-12-24T01:06:23.983Z,0.00
2018-12-24T01:07:23.970Z,0.00
2018-12-24T01:08:23.961Z,0.00
2018-12-24T01:09:24.020Z,0.00
2018-12-24T01:10:23.984Z,0.00
2018-12-24T01:11:23.926Z,0.00
2018-12-24T01:12:24.734Z,0.00
2018-12-24T01:13:23.904Z,0.00
2018-12-24T01:14:23.894Z,0.00
2018-12-24T01:15:23.882Z,0.00
2018-12-24T01:16:23.872Z,0.00
2018-12-24T01:17:23.861Z,0.00
2018-12-24T01:18:23.870Z,0.00
2018-12-24T01:19:23.836Z,0.00
2018-12-24T01:20:23.828Z,0.00
2018-12-24T01:21:23.816Z,0.00
2018-12-24T01:22:23.806Z,0.00
2018-12-24T01:23:23.793Z,0.00
2018-12-24T01:24:23.781Z,0.00
2018-12-24T01:25:23.773Z,0.00
2018-12-24T01:26:23.763Z,0.00
2018-12-24T01:27:23.747Z,0.00
2018-12-24T01:28:23.736Z,0.00
2018-12-24T01:29:23.727Z,0.00
2018-12-24T01:30:23.718Z,0.00
2018-12-24T01:31:23.709Z,0.00
2018-12-24T01:32:23.705Z,0.00
2018-12-24T01:33:23.682Z,0.00
2018-12-24T01:34:23.671Z,0.00
2018-12-24T01:35:23.661Z,0.00
2018-12-24T01:36:23.647Z,0.00
2018-12-24T01:37:23.637Z,0.00
2018-12-24T01:38:23.625Z,0.00
2018-12-24T01:39:23.614Z,0.00
2018-12-24T01:40:23.605Z,0.00
2018-12-24T01:41:23.592Z,0.00
2018-12-24T01:42:23.582Z,0.00
2018-12-24T01:43:23.570Z,0.00
2018-12-24T01:44:23.561Z,0.00
2018-12-24T01:45:23.547Z,0.00
2018-12-24T01:46:23.538Z,0.00
2018-12-24T01:47:23.526Z,0.00
2018-12-24T01:48:23.516Z,0.00
2018-12-24T01:49:23.505Z,0.00
2018-12-24T01:50:23.496Z,0.00
2018-12-24T01:51:23.480Z,0.00
2018-12-24T01:52:23.470Z,0.00
2018-12-24T01:53:23.459Z,0.00
2018-12-24T01:54:23.449Z,0.00
2018-12-24T01:55:23.438Z,0.00
2018-12-24T01:56:23.428Z,0.00
2018-12-24T01:57:23.415Z,0.00
2018-12-24T01:58:23.405Z,0.00
2018-12-24T01:59:23.392Z,0.00
2018-12-24T02:00:23.383Z,0.00
2018-12-24T02:01:23.370Z,0.00
2018-12-24T02:02:23.361Z,0.00
2018-12-24T02:03:23.348Z,0.00
2018-12-24T02:04:23.357Z,0.00
2018-12-24T02:05:23.327Z,0.00
2018-12-24T02:06:23.314Z,0.00
2018-12-24T02:07:23.303Z,0.00
2018-12-24T02:08:23.295Z,0.00
2018-12-24T02:09:23.283Z,0.00
2018-12-24T02:10:23.271Z,0.00
2018-12-24T02:11:23.259Z,0.00
2018-12-24T02:12:23.247Z,0.00
2018-12-24T02:13:23.238Z,0.00
2018-12-24T02:14:23.228Z,0.00
2018-12-24T02:15:23.218Z,0.00
2018-12-24T02:16:23.207Z,0.00
2018-12-24T02:17:23.193Z,0.00
2018-12-24T02:18:23.182Z,0.00
2018-12-24T02:19:23.170Z,0.00
2018-12-24T02:20:23.161Z,0.00
2018-12-24T02:21:23.148Z,0.00
2018-12-24T02:22:23.136Z,0.00
2018-12-24T02:23:23.128Z,0.00
2018-12-24T02:24:23.114Z,0.00
2018-12-24T02:25:23.103Z,0.00
2018-12-24T02:26:23.094Z,0.00
2018-12-24T02:27:23.081Z,0.00
2018-12-24T02:28:23.071Z,0.00
2018-12-24T02:29:23.059Z,0.00
2018-12-24T02:30:23.053Z,0.00
2018-12-24T02:31:23.036Z,0.00
2018-12-24T02:32:23.025Z,0.00
2018-12-24T02:33:23.019Z,0.00
2018-12-24T02:34:23.111Z,0.00
2018-12-24T02:35:22.993Z,0.00
2018-12-24T02:36:22.979Z,0.00
2018-12-24T02:37:22.967Z,0.00
2018-12-24T02:38:22.962Z,0.00
2018-12-24T02:39:22.948Z,0.00
2018-12-24T02:40:22.934Z,0.00
2018-12-24T02:41:22.924Z,0.00
2018-12-24T02:42:22.913Z,0.00
2018-12-24T02:43:22.905Z,0.00
2018-12-24T02:44:22.890Z,0.00
2018-12-24T02:45:22.885Z,0.00
2018-12-24T02:46:22.870Z,0.00
2018-12-24T02:47:22.857Z,0.00
2018-12-24T02:48:22.848Z,0.00
2018-12-24T02:49:22.841Z,0.00
2018-12-24T02:50:22.826Z,0.00
2018-12-24T02:51:22.822Z,0.00
2018-12-24T02:52:22.800Z,0.00
2018-12-24T02:53:22.791Z,0.00
2018-12-24T02:54:22.784Z,0.00
2018-12-24T02:55:22.772Z,0.00
2018-12-24T02:56:22.760Z,0.00
2018-12-24T02:57:22.746Z,0.00
2018-12-24T02:58:22.734Z,0.00
2018-12-24T02:59:22.726Z,0.00
2018-12-24T03:00:22.713Z,0.00
2018-12-24T03:01:22.702Z,0.00
2018-12-24T03:02:22.692Z,0.00
2018-12-24T03:03:22.682Z,0.00
2018-12-24T03:04:22.667Z,0.00
2018-12-24T03:05:22.658Z,0.00
2018-12-24T03:06:22.647Z,0.00
2018-12-24T03:07:22.636Z,0.00
2018-12-24T03:08:22.624Z,0.00
2018-12-24T03:09:22.612Z,0.00
2018-12-24T03:10:22.602Z,0.00
2018-12-24T03:11:22.590Z,0.00
2018-12-24T03:12:22.578Z,0.00
2018-12-24T03:13:22.571Z,0.00
2018-12-24T03:14:22.559Z,0.00
2018-12-24T03:15:22.546Z,0.00
2018-12-24T03:16:22.532Z,0.00
2018-12-24T03:17:22.523Z,0.00
2018-12-24T03:18:22.511Z,0.00
2018-12-24T03:19:22.500Z,0.00
2018-12-24T03:20:22.490Z,0.00
2018-12-24T03:21:22.479Z,0.00
2018-12-24T03:22:22.467Z,0.00
2018-12-24T03:23:22.455Z,0.00
2018-12-24T03:24:22.451Z,0.00
2018-12-24T03:25:22.435Z,0.00
2018-12-24T03:26:22.422Z,0.00
2018-12-24T03:27:22.410Z,0.00
2018-12-24T03:28:22.400Z,0.00
2018-12-24T03:29:22.391Z,0.00
2018-12-24T03:30:22.381Z,0.00
2018-12-24T03:31:22.373Z,0.00
2018-12-24T03:32:22.364Z,0.00
2018-12-24T03:33:22.353Z,0.00
2018-12-24T03:34:22.333Z,0.00
2018-12-24T03:35:22.322Z,0.00
2018-12-24T03:36:22.309Z,0.00
2018-12-24T03:37:22.297Z,0.00
2018-12-24T03:38:22.289Z,0.00
2018-12-24T03:39:22.276Z,0.00
2018-12-24T03:40:22.266Z,0.00
2018-12-24T03:41:22.259Z,0.00
2018-12-24T03:42:22.245Z,0.00
2018-12-24T03:43:22.232Z,0.00
2018-12-24T03:44:22.219Z,0.00
2018-12-24T03:45:22.209Z,0.00
2018-12-24T03:46:22.198Z,0.00
2018-12-24T03:47:22.189Z,0.00
2018-12-24T03:48:22.177Z,0.00
2018-12-24T03:49:22.165Z,0.00
2018-12-24T03:50:22.157Z,0.00
2018-12-24T03:51:22.147Z,0.00
2018-12-24T03:52:22.138Z,0.00
2018-12-24T03:53:22.120Z,0.00
2018-12-24T03:54:22.108Z,0.00
2018-12-24T03:55:22.098Z,0.00
2018-12-24T03:56:22.085Z,0.00
2018-12-24T03:57:22.079Z,0.00
2018-12-24T03:58:22.064Z,0.00
2018-12-24T03:59:22.055Z,0.00
2018-12-24T04:00:22.062Z,0.00
2018-12-24T04:01:22.062Z,0.00
2018-12-24T04:02:22.041Z,0.00
2018-12-24T04:03:22.027Z,0.00
2018-12-24T04:04:21.998Z,0.00
2018-12-24T04:05:21.991Z,0.00
2018-12-24T04:06:21.975Z,0.00
2018-12-24T04:07:21.965Z,0.00
2018-12-24T04:08:21.956Z,0.00
2018-12-24T04:09:21.939Z,0.00
2018-12-24T04:10:21.929Z,0.00
2018-12-24T04:11:24.146Z,0.00
2018-12-24T04:12:21.908Z,0.00
2018-12-24T04:13:22.627Z,0.00
2018-12-24T04:14:21.885Z,0.00
2018-12-24T04:15:21.874Z,0.00
2018-12-24T04:16:21.863Z,0.00
2018-12-24T04:17:21.853Z,0.00
2018-12-24T04:18:21.842Z,0.00
2018-12-24T04:19:21.832Z,0.00
2018-12-24T04:20:21.816Z,0.00
2018-12-24T04:21:22.839Z,0.00
2018-12-24T04:22:21.812Z,0.00
2018-12-24T04:23:21.784Z,0.00
2018-12-24T04:24:21.773Z,0.00
2018-12-24T04:25:21.764Z,0.00
2018-12-24T04:26:21.751Z,0.00
2018-12-24T04:27:21.745Z,0.00
2018-12-24T04:28:21.734Z,0.00
2018-12-24T04:29:21.716Z,0.00
2018-12-24T04:30:21.709Z,0.00
2018-12-24T04:31:21.694Z,0.00
2018-12-24T04:32:21.682Z,0.00
2018-12-24T04:33:21.679Z,0.00
2018-12-24T04:34:21.668Z,0.00
2018-12-24T04:35:21.650Z,0.00
2018-12-24T04:36:21.648Z,0.00
2018-12-24T04:37:21.628Z,0.00
2018-12-24T04:38:21.616Z,0.00
2018-12-24T04:39:21.605Z,0.00
2018-12-24T04:40:21.594Z,0.00
2018-12-24T04:41:21.581Z,0.00
2018-12-24T04:42:21.572Z,0.00
2018-12-24T04:43:21.575Z,0.00
2018-12-24T04:44:21.552Z,0.00
2018-12-24T04:45:21.538Z,0.00
2018-12-24T04:46:21.532Z,0.00
2018-12-24T04:47:21.516Z,0.00
2018-12-24T04:48:21.503Z,0.00
2018-12-24T04:49:21.497Z,0.00
2018-12-24T04:50:21.482Z,0.00
2018-12-24T04:51:21.472Z,0.00
2018-12-24T04:52:21.462Z,0.00
2018-12-24T04:53:21.453Z,0.00
2018-12-24T04:54:21.452Z,0.00
2018-12-24T04:55:21.427Z,0.00
2018-12-24T04:56:21.418Z,0.00
2018-12-24T04:57:21.404Z,0.00
2018-12-24T04:58:21.391Z,0.00
2018-12-24T04:59:21.382Z,0.00
2018-12-24T05:00:21.372Z,0.00
2018-12-24T05:01:21.361Z,0.00
2018-12-24T05:02:21.347Z,0.00
2018-12-24T05:03:21.338Z,0.00
2018-12-24T05:04:21.325Z,0.00
2018-12-24T05:05:21.314Z,0.00
2018-12-24T05:06:21.303Z,0.00
2018-12-24T05:07:21.294Z,0.00
2018-12-24T05:08:21.281Z,0.00
2018-12-24T05:09:21.271Z,0.00
2018-12-24T05:10:21.259Z,0.00
2018-12-24T05:11:21.249Z,0.00
2018-12-24T05:12:21.237Z,0.00
2018-12-24T05:13:21.227Z,0.00
2018-12-24T05:14:21.214Z,0.00
2018-12-24T05:15:21.205Z,0.00
2018-12-24T05:16:21.195Z,0.00
2018-12-24T05:17:21.183Z,0.00
2018-12-24T05:18:21.174Z,0.00
2018-12-24T05:19:21.159Z,0.00
2018-12-24T05:20:21.150Z,0.00
2018-12-24T05:21:21.138Z,0.00
2018-12-24T05:22:21.128Z,0.00
2018-12-24T05:23:21.118Z,0.00
2018-12-24T05:24:21.105Z,0.00
2018-12-24T05:25:21.097Z,0.00
2018-12-24T05:26:21.084Z,0.00
2018-12-24T05:27:21.071Z,0.00
2018-12-24T05:28:21.060Z,0.00
2018-12-24T05:29:21.086Z,0.00
2018-12-24T05:30:21.039Z,0.00
2018-12-24T05:31:21.028Z,0.00
2018-12-24T05:32:21.022Z,0.00
2018-12-24T05:33:21.009Z,0.00
2018-12-24T05:34:20.997Z,0.00
2018-12-24T05:35:20.984Z,0.00
2018-12-24T05:36:20.984Z,0.00
2018-12-24T05:37:20.963Z,0.00
2018-12-24T05:38:20.951Z,0.00
2018-12-24T05:39:20.940Z,0.00
2018-12-24T05:40:20.930Z,0.00
2018-12-24T05:41:20.920Z,0.00
2018-12-24T05:42:20.908Z,0.00
2018-12-24T05:43:20.895Z,0.00
2018-12-24T05:44:20.887Z,0.00
2018-12-24T05:45:20.874Z,0.00
2018-12-24T05:46:20.864Z,0.00
2018-12-24T05:47:20.854Z,0.00
2018-12-24T05:48:20.842Z,0.00
2018-12-24T05:49:20.830Z,0.00
2018-12-24T05:50:20.818Z,0.00
2018-12-24T05:51:20.807Z,0.00
2018-12-24T05:52:20.799Z,0.00
2018-12-24T05:53:20.787Z,0.00
2018-12-24T05:54:20.775Z,0.00
2018-12-24T05:55:20.765Z,0.00
2018-12-24T05:56:20.755Z,0.00
2018-12-24T05:57:20.743Z,0.00
2018-12-24T05:58:20.733Z,0.00
2018-12-24T05:59:20.723Z,0.00
2018-12-24T06:00:20.711Z,0.00
2018-12-24T06:01:20.701Z,0.00
2018-12-24T06:02:20.687Z,0.00
2018-12-24T06:03:20.676Z,0.00
2018-12-24T06:04:22.220Z,0.00
2018-12-24T06:05:20.655Z,0.00
2018-12-24T06:06:20.645Z,0.00
2018-12-24T06:07:20.631Z,0.00
2018-12-24T06:08:20.622Z,0.00
2018-12-24T06:09:20.611Z,0.00
2018-12-24T06:10:20.599Z,0.00
2018-12-24T06:11:20.589Z,0.00
2018-12-24T06:12:20.579Z,0.00
2018-12-24T06:13:20.567Z,0.00
2018-12-24T06:14:20.554Z,0.00
2018-12-24T06:15:20.543Z,0.00
2018-12-24T06:16:20.532Z,0.00
2018-12-24T06:17:20.522Z,0.00
2018-12-24T06:18:20.512Z,0.00
2018-12-24T06:19:20.500Z,0.00
2018-12-24T06:20:20.491Z,0.00
2018-12-24T06:21:20.480Z,0.00
2018-12-24T06:22:20.468Z,0.00
2018-12-24T06:23:20.458Z,0.00
2018-12-24T06:24:20.445Z,0.00
2018-12-24T06:25:20.436Z,0.00
2018-12-24T06:26:20.424Z,0.00
2018-12-24T06:27:20.413Z,0.00
2018-12-24T06:28:20.403Z,0.00
2018-12-24T06:29:20.391Z,0.00
2018-12-24T06:30:20.381Z,0.00
2018-12-24T06:31:20.370Z,0.00
2018-12-24T06:32:20.357Z,0.00
2018-12-24T06:33:20.347Z,0.00
2018-12-24T06:34:20.337Z,0.00
2018-12-24T06:35:20.326Z,0.00
2018-12-24T06:36:20.316Z,0.00
2018-12-24T06:37:20.303Z,0.00
2018-12-24T06:38:20.293Z,0.00
2018-12-24T06:39:20.282Z,0.00
2018-12-24T06:40:20.271Z,0.00
2018-12-24T06:41:20.258Z,0.00
2018-12-24T06:42:20.250Z,0.00
2018-12-24T06:43:20.237Z,0.00
2018-12-24T06:44:20.225Z,0.00
2018-12-24T06:45:20.217Z,4.00
2018-12-24T06:46:20.205Z,4.00
2018-12-24T06:47:20.194Z,0.00
2018-12-24T06:48:20.182Z,4.00
2018-12-24T06:49:20.171Z,4.00
2018-12-24T06:50:20.163Z,0.00
2018-12-24T06:51:20.150Z,4.00
2018-12-24T06:52:20.139Z,4.00
2018-12-24T06:53:20.128Z,4.00
2018-12-24T06:54:20.116Z,4.00
2018-12-24T06:55:20.104Z,4.00
2018-12-24T06:56:20.094Z,4.00
2018-12-24T06:57:20.082Z,8.00
2018-12-24T06:58:20.071Z,8.00
2018-12-24T06:59:20.061Z,8.00
2018-12-24T07:00:20.049Z,12.00
2018-12-24T07:01:20.040Z,16.00
2018-12-24T07:02:20.033Z,24.00
2018-12-24T07:03:20.016Z,28.00
2018-12-24T07:04:20.005Z,32.00
2018-12-24T07:05:19.997Z,36.00
2018-12-24T07:06:19.983Z,44.00
2018-12-24T07:07:19.974Z,48.00
2018-12-24T07:08:19.962Z,44.00
2018-12-24T07:09:19.969Z,40.00
2018-12-24T07:10:19.941Z,32.00
2018-12-24T07:11:19.928Z,40.00
2018-12-24T07:12:19.916Z,56.00
2018-12-24T07:13:19.906Z,68.00
2018-12-24T07:14:19.896Z,68.00
2018-12-24T07:15:19.884Z,72.00
2018-12-24T07:16:19.876Z,92.00
2018-12-24T07:17:19.864Z,100.00
2018-12-24T07:18:19.854Z,104.00
2018-12-24T07:19:19.839Z,124.00
2018-12-24T07:20:19.829Z,120.00
2018-12-24T07:21:19.820Z,128.00
2018-12-24T07:22:19.807Z,128.00
2018-12-24T07:23:19.797Z,132.00
2018-12-24T07:24:19.787Z,136.00
2018-12-24T07:25:19.774Z,140.00
2018-12-24T07:26:19.763Z,136.00
2018-12-24T07:27:19.753Z,132.00
2018-12-24T07:28:19.745Z,144.00
2018-12-24T07:29:19.733Z,152.00
2018-12-24T07:30:19.721Z,160.00
2018-12-24T07:31:19.709Z,156.00
2018-12-24T07:32:19.701Z,168.00
2018-12-24T07:33:19.688Z,176.00
2018-12-24T07:34:19.676Z,204.00
2018-12-24T07:35:19.664Z,204.00
2018-12-24T07:36:19.655Z,212.00
2018-12-24T07:37:19.643Z,224.00
2018-12-24T07:38:19.632Z,232.00
2018-12-24T07:39:19.623Z,240.00
2018-12-24T07:40:19.611Z,248.00
2018-12-24T07:41:19.598Z,272.00
2018-12-24T07:42:19.589Z,260.00
2018-12-24T07:43:19.577Z,272.00
2018-12-24T07:44:24.155Z,272.00
2018-12-24T07:45:19.555Z,284.00
2018-12-24T07:46:19.543Z,312.00
2018-12-24T07:47:19.532Z,336.00
2018-12-24T07:48:19.523Z,348.00
2018-12-24T07:49:19.512Z,344.00
2018-12-24T07:50:19.499Z,328.00
2018-12-24T07:51:19.495Z,336.00
2018-12-24T07:52:19.482Z,348.00
2018-12-24T07:53:19.468Z,368.00
2018-12-24T07:54:19.457Z,352.00
2018-12-24T07:55:19.444Z,352.00
2018-12-24T07:56:19.437Z,340.00
2018-12-24T07:57:19.423Z,348.00
2018-12-24T07:58:19.414Z,364.00
2018-12-24T07:59:19.403Z,404.00
2018-12-24T08:00:19.392Z,416.00
2018-12-24T08:01:19.378Z,432.00
2018-12-24T08:02:19.371Z,472.00
2018-12-24T08:03:19.356Z,480.00
2018-12-24T08:04:19.347Z,516.00
2018-12-24T08:05:19.336Z,536.00
2018-12-24T08:06:19.324Z,524.00
2018-12-24T08:07:19.312Z,544.00
2018-12-24T08:08:19.302Z,544.00
2018-12-24T08:09:19.291Z,500.00
2018-12-24T08:10:19.281Z,548.00
2018-12-24T08:11:19.271Z,568.00
2018-12-24T08:12:19.265Z,748.00
2018-12-24T08:13:19.248Z,608.00
2018-12-24T08:14:19.237Z,520.00
2018-12-24T08:15:19.227Z,552.00
2018-12-24T08:16:19.216Z,552.00
2018-12-24T08:17:19.205Z,620.00
2018-12-24T08:18:19.195Z,588.00
2018-12-24T08:19:19.191Z,540.00
2018-12-24T08:20:19.173Z,536.00
2018-12-24T08:21:19.160Z,556.00
2018-12-24T08:22:19.150Z,560.00
2018-12-24T08:23:19.139Z,556.00
2018-12-24T08:24:19.127Z,564.00
2018-12-24T08:25:19.118Z,584.00
2018-12-24T08:26:19.104Z,568.00
2018-12-24T08:27:19.095Z,628.00
2018-12-24T08:28:19.082Z,604.00
2018-12-24T08:29:19.071Z,616.00
2018-12-24T08:30:19.059Z,696.00
2018-12-24T08:31:19.053Z,748.00
2018-12-24T08:32:19.042Z,796.00
2018-12-24T08:33:19.028Z,820.00
2018-12-24T08:34:19.017Z,944.00
2018-12-24T08:35:19.006Z,924.00
2018-12-24T08:36:18.995Z,760.00
2018-12-24T08:37:18.983Z,664.00
2018-12-24T08:38:18.974Z,656.00
2018-12-24T08:39:18.960Z,664.00
2018-12-24T08:40:18.951Z,740.00
2018-12-24T08:41:18.940Z,868.00
2018-12-24T08:42:18.932Z,752.00
2018-12-24T08:43:18.919Z,696.00
2018-12-24T08:44:18.933Z,832.00
2018-12-24T08:45:18.898Z,776.00
2018-12-24T08:46:18.884Z,780.00
2018-12-24T08:47:18.874Z,776.00
2018-12-24T08:48:18.863Z,828.00
2018-12-24T08:49:18.850Z,940.00
2018-12-24T08:50:18.840Z,992.00
2018-12-24T08:51:18.831Z,1060.00
2018-12-24T08:52:18.817Z,1020.00
2018-12-24T08:53:18.811Z,852.00
2018-12-24T08:54:18.796Z,648.00
2018-12-24T08:55:18.787Z,624.00
2018-12-24T08:56:18.775Z,632.00
2018-12-24T08:57:18.767Z,632.00
2018-12-24T08:58:18.755Z,548.00
2018-12-24T08:59:18.741Z,560.00
2018-12-24T09:00:18.735Z,544.00
2018-12-24T09:01:18.721Z,600.00
2018-12-24T09:02:18.711Z,612.00
2018-12-24T09:03:18.698Z,600.00
2018-12-24T09:04:18.687Z,608.00
2018-12-24T09:05:18.678Z,552.00
2018-12-24T09:06:18.669Z,520.00
2018-12-24T09:07:18.654Z,524.00
2018-12-24T09:08:18.646Z,492.00
2018-12-24T09:09:19.096Z,488.00
2018-12-24T09:10:18.623Z,544.00
2018-12-24T09:11:18.608Z,520.00
2018-12-24T09:12:18.601Z,512.00
2018-12-24T09:13:18.588Z,580.00
2018-12-24T09:14:18.579Z,576.00
2018-12-24T09:15:18.566Z,588.00
2018-12-24T09:16:18.554Z,604.00
2018-12-24T09:17:18.547Z,624.00
2018-12-24T09:18:18.534Z,608.00
2018-12-24T09:19:18.521Z,556.00
2018-12-24T09:20:18.514Z,576.00
2018-12-24T09:21:18.500Z,576.00
2018-12-24T09:22:18.490Z,584.00
2018-12-24T09:23:18.479Z,588.00
2018-12-24T09:24:18.466Z,640.00
2018-12-24T09:25:18.456Z,684.00
2018-12-24T09:26:18.446Z,744.00
2018-12-24T09:27:18.449Z,724.00
2018-12-24T09:28:18.424Z,676.00
2018-12-24T09:29:18.413Z,684.00
2018-12-24T09:30:18.400Z,652.00
2018-12-24T09:31:18.388Z,688.00
2018-12-24T09:32:18.379Z,668.00
2018-12-24T09:33:18.367Z,660.00
2018-12-24T09:34:18.358Z,620.00
2018-12-24T09:35:18.344Z,612.00
2018-12-24T09:36:18.443Z,680.00
2018-12-24T09:37:18.324Z,720.00
2018-12-24T09:38:18.315Z,728.00
2018-12-24T09:39:18.303Z,696.00
2018-12-24T09:40:18.291Z,720.00
2018-12-24T09:41:18.279Z,700.00
2018-12-24T09:42:18.270Z,672.00
2018-12-24T09:43:18.258Z,608.00
2018-12-24T09:44:18.247Z,628.00
2018-12-24T09:45:18.238Z,624.00
2018-12-24T09:46:18.225Z,640.00
2018-12-24T09:47:18.216Z,684.00
2018-12-24T09:48:18.206Z,664.00
2018-12-24T09:49:18.191Z,704.00
2018-12-24T09:50:18.181Z,676.00
2018-12-24T09:51:18.177Z,648.00
2018-12-24T09:52:18.159Z,648.00
2018-12-24T09:53:18.147Z,652.00
2018-12-24T09:54:18.138Z,620.00
2018-12-24T09:55:18.125Z,624.00
2018-12-24T09:56:18.113Z,648.00
2018-12-24T09:57:18.102Z,728.00
2018-12-24T09:58:18.093Z,672.00
2018-12-24T09:59:18.082Z,644.00
2018-12-24T10:00:18.071Z,696.00
2018-12-24T10:01:18.061Z,672.00
2018-12-24T10:02:18.049Z,636.00
2018-12-24T10:03:18.038Z,620.00
2018-12-24T10:04:18.028Z,612.00
2018-12-24T10:05:18.014Z,596.00
2018-12-24T10:06:18.011Z,700.00
2018-12-24T10:07:17.992Z,812.00
2018-12-24T10:08:17.984Z,928.00
2018-12-24T10:09:17.972Z,980.00
2018-12-24T10:10:17.963Z,1076.00
2018-12-24T10:11:17.948Z,1000.00
2018-12-24T10:12:17.938Z,1100.00
2018-12-24T10:13:17.926Z,1108.00
2018-12-24T10:14:17.915Z,1076.00
2018-12-24T10:15:17.903Z,1096.00
2018-12-24T10:16:17.894Z,1140.00
2018-12-24T10:17:17.884Z,1096.00
2018-12-24T10:18:17.871Z,1016.00
2018-12-24T10:19:17.861Z,1084.00
2018-12-24T10:20:17.850Z,1096.00
2018-12-24T10:21:17.845Z,1040.00
2018-12-24T10:22:17.833Z,976.00
2018-12-24T10:23:17.817Z,940.00
2018-12-24T10:24:17.804Z,864.00
2018-12-24T10:25:17.795Z,824.00
2018-12-24T10:26:17.785Z,868.00
2018-12-24T10:27:17.778Z,876.00
2018-12-24T10:28:17.783Z,856.00
2018-12-24T10:29:19.600Z,860.00
2018-12-24T10:30:17.737Z,896.00
2018-12-24T10:31:17.728Z,892.00
2018-12-24T10:32:17.716Z,876.00
2018-12-24T10:33:17.709Z,808.00
2018-12-24T10:34:17.697Z,780.00
2018-12-24T10:35:17.683Z,768.00
2018-12-24T10:36:17.672Z,700.00
2018-12-24T10:37:17.662Z,696.00
2018-12-24T10:38:17.654Z,792.00
2018-12-24T10:39:17.641Z,712.00
2018-12-24T10:40:17.629Z,672.00
2018-12-24T10:41:17.618Z,736.00
2018-12-24T10:42:17.606Z,696.00
2018-12-24T10:43:17.597Z,736.00
2018-12-24T10:44:17.584Z,732.00
2018-12-24T10:45:17.584Z,732.00
2018-12-24T10:46:17.562Z,776.00
2018-12-24T10:47:17.554Z,692.00
2018-12-24T10:48:17.542Z,892.00
2018-12-24T10:49:17.530Z,908.00
2018-12-24T10:50:17.522Z,1024.00
2018-12-24T10:51:17.507Z,980.00
2018-12-24T10:52:17.499Z,912.00
2018-12-24T10:53:17.485Z,896.00
2018-12-24T10:54:17.477Z,864.00
2018-12-24T10:55:17.463Z,820.00
2018-12-24T10:56:17.453Z,856.00
2018-12-24T10:57:17.442Z,820.00
2018-12-24T10:58:17.431Z,816.00
2018-12-24T10:59:17.420Z,780.00
2018-12-24T11:00:17.410Z,820.00
2018-12-24T11:01:17.399Z,812.00
2018-12-24T11:02:17.390Z,736.00
2018-12-24T11:03:17.379Z,720.00
2018-12-24T11:04:17.366Z,740.00
2018-12-24T11:05:17.354Z,688.00
2018-12-24T11:06:17.343Z,620.00
2018-12-24T11:07:17.335Z,648.00
2018-12-24T11:08:17.322Z,612.00
2018-12-24T11:09:17.328Z,636.00
2018-12-24T11:10:17.320Z,644.00
2018-12-24T11:11:17.299Z,632.00
2018-12-24T11:12:17.286Z,652.00
2018-12-24T11:13:17.267Z,676.00
2018-12-24T11:14:17.261Z,688.00
2018-12-24T11:15:24.852Z,692.00
2018-12-24T11:16:18.244Z,724.00
2018-12-24T11:17:17.246Z,692.00
2018-12-24T11:18:17.243Z,680.00
2018-12-24T11:19:17.222Z,704.00
2018-12-24T11:20:17.222Z,720.00
2018-12-24T11:21:17.208Z,712.00
2018-12-24T11:22:17.180Z,712.00
2018-12-24T11:23:17.182Z,668.00
2018-12-24T11:24:17.210Z,604.00
2018-12-24T11:25:17.162Z,656.00
2018-12-24T11:26:17.126Z,660.00
2018-12-24T11:27:17.112Z,676.00
2018-12-24T11:28:17.134Z,788.00
2018-12-24T11:29:17.091Z,724.00
2018-12-24T11:30:17.080Z,664.00
2018-12-24T11:31:17.070Z,564.00
2018-12-24T11:32:17.059Z,532.00
2018-12-24T11:33:17.050Z,696.00
2018-12-24T11:34:17.036Z,708.00
2018-12-24T11:35:17.028Z,688.00
2018-12-24T11:36:17.014Z,692.00
2018-12-24T11:37:17.004Z,756.00
2018-12-24T11:38:16.992Z,788.00
2018-12-24T11:39:16.981Z,1000.00
2018-12-24T11:40:16.969Z,1008.00
2018-12-24T11:41:16.962Z,1012.00
2018-12-24T11:42:16.948Z,1000.00
2018-12-24T11:43:16.938Z,1180.00
2018-12-24T11:44:16.924Z,956.00
2018-12-24T11:45:16.916Z,816.00
2018-12-24T11:46:16.903Z,788.00
2018-12-24T11:47:16.892Z,776.00
2018-12-24T11:48:16.883Z,856.00
2018-12-24T11:49:16.871Z,820.00
2018-12-24T11:50:16.861Z,808.00
2018-12-24T11:51:16.850Z,840.00
2018-12-24T11:52:16.839Z,908.00
2018-12-24T11:53:16.828Z,1004.00
2018-12-24T11:54:16.818Z,1120.00
2018-12-24T11:55:16.806Z,1172.00
2018-12-24T11:56:16.794Z,1072.00
2018-12-24T11:57:16.784Z,1016.00
2018-12-24T11:58:16.871Z,1028.00
2018-12-24T11:59:16.761Z,1064.00
2018-12-24T12:00:16.757Z,1104.00
2018-12-24T12:01:16.741Z,1068.00
2018-12-24T12:02:16.729Z,1016.00
2018-12-24T12:03:16.717Z,948.00
2018-12-24T12:04:16.708Z,868.00
2018-12-24T12:05:16.697Z,916.00
2018-12-24T12:06:19.800Z,892.00
2018-12-24T12:07:16.673Z,896.00
2018-12-24T12:08:16.664Z,864.00
2018-12-24T12:09:16.653Z,776.00
2018-12-24T12:10:16.643Z,820.00
2018-12-24T12:11:16.631Z,864.00
2018-12-24T12:12:16.622Z,816.00
2018-12-24T12:13:16.610Z,852.00
2018-12-24T12:14:16.597Z,832.00
2018-12-24T12:15:16.590Z,848.00
2018-12-24T12:16:16.575Z,884.00
2018-12-24T12:17:16.565Z,832.00
2018-12-24T12:18:16.551Z,876.00
2018-12-24T12:19:16.543Z,832.00
2018-12-24T12:20:16.532Z,852.00
2018-12-24T12:21:16.520Z,924.00
2018-12-24T12:22:16.512Z,876.00
2018-12-24T12:23:16.500Z,772.00
2018-12-24T12:24:16.486Z,824.00
2018-12-24T12:25:16.478Z,980.00
2018-12-24T12:26:16.466Z,1060.00
2018-12-24T12:27:16.453Z,1004.00
2018-12-24T12:28:17.297Z,1088.00
2018-12-24T12:29:16.432Z,1264.00
2018-12-24T12:30:16.465Z,1268.00
2018-12-24T12:31:16.410Z,1200.00
2018-12-24T12:32:16.399Z,1228.00
2018-12-24T12:33:16.389Z,1292.00
2018-12-24T12:34:16.378Z,1212.00
2018-12-24T12:35:16.367Z,1220.00
2018-12-24T12:36:16.368Z,1192.00
2018-12-24T12:37:16.345Z,1192.00
2018-12-24T12:38:16.331Z,1116.00
2018-12-24T12:39:16.325Z,1108.00
2018-12-24T12:40:16.312Z,1048.00
2018-12-24T12:41:16.305Z,1076.00
2018-12-24T12:42:17.678Z,1092.00
2018-12-24T12:43:16.278Z,1040.00
2018-12-24T12:44:16.269Z,1032.00
2018-12-24T12:45:16.255Z,1064.00
2018-12-24T12:46:16.246Z,1004.00
2018-12-24T12:47:16.236Z,960.00
2018-12-24T12:48:16.226Z,924.00
2018-12-24T12:49:16.215Z,876.00
2018-12-24T12:50:16.201Z,856.00
2018-12-24T12:51:16.190Z,836.00
2018-12-24T12:52:16.179Z,820.00
2018-12-24T12:53:16.172Z,748.00
2018-12-24T12:54:16.156Z,692.00